createdAt,value
2019-02-19T00:01:11.227Z,9.65
2019-02-19T00:03:39.682Z,10.18
2019-02-19T00:06:08.124Z,9.85
2019-02-19T00:08:36.920Z,9.30
2019-02-19T00:11:05.380Z,10.70
2019-02-19T00:13:33.830Z,10.70
2019-02-19T00:16:02.316Z,10.70
2019-02-19T00:18:30.774Z,9.65
2019-02-19T00:20:59.250Z,10.98
2019-02-19T00:23:27.714Z,11.12
2019-02-19T00:25:56.195Z,10.35
2019-02-19T00:28:24.719Z,10.15
2019-02-19T00:30:53.213Z,10.45
2019-02-19T00:33:21.732Z,10.32
2019-02-19T00:35:50.214Z,10.70
2019-02-19T00:38:18.694Z,11.15
2019-02-19T00:40:47.127Z,10.88
2019-02-19T00:43:15.590Z,10.23
2019-02-19T00:45:44.035Z,10.82
2019-02-19T00:48:12.499Z,10.90
2019-02-19T00:50:41.047Z,10.90
2019-02-19T00:53:09.522Z,10.93
2019-02-19T00:55:37.989Z,10.38
2019-02-19T00:58:06.471Z,10.53
2019-02-19T01:00:34.946Z,10.63
2019-02-19T01:03:03.401Z,10.78
2019-02-19T01:05:31.874Z,11.33
2019-02-19T01:08:00.355Z,11.12
2019-02-19T01:10:28.895Z,11.78
2019-02-19T01:12:57.389Z,11.90
2019-02-19T01:15:26.252Z,10.93
2019-02-19T01:17:54.743Z,12.00
2019-02-19T01:20:23.607Z,10.35
2019-02-19T01:22:52.046Z,10.90
2019-02-19T01:25:20.494Z,11.35
2019-02-19T01:27:48.955Z,11.85
2019-02-19T01:30:17.399Z,11.53
2019-02-19T01:32:45.855Z,10.32
2019-02-19T01:35:14.366Z,10.98
2019-02-19T01:37:42.847Z,11.28
2019-02-19T01:40:11.287Z,11.85
2019-02-19T01:42:39.731Z,11.93
2019-02-19T01:45:09.155Z,11.15
2019-02-19T01:47:37.608Z,11.22
2019-02-19T01:50:08.517Z,11.95
2019-02-19T01:52:36.998Z,12.05
2019-02-19T01:55:07.580Z,12.23
2019-02-19T01:57:36.105Z,12.28
2019-02-19T02:00:06.806Z,12.30
2019-02-19T02:02:35.324Z,11.70
2019-02-19T02:05:04.537Z,11.83
2019-02-19T02:07:33.027Z,13.13
2019-02-19T02:10:01.548Z,13.10
2019-02-19T02:12:29.987Z,13.93
2019-02-19T02:14:58.517Z,14.10
2019-02-19T02:17:26.968Z,14.53
2019-02-19T02:19:55.481Z,14.18
2019-02-19T02:22:23.987Z,13.22
2019-02-19T02:24:52.431Z,13.40
2019-02-19T02:27:20.895Z,13.98
2019-02-19T02:29:49.330Z,15.68
2019-02-19T02:32:17.796Z,14.07
2019-02-19T02:34:46.239Z,14.30
2019-02-19T02:37:14.720Z,15.00
2019-02-19T02:39:43.158Z,14.70
2019-02-19T02:42:11.616Z,14.87
2019-02-19T02:44:40.087Z,15.70
2019-02-19T02:47:08.534Z,14.70
2019-02-19T02:49:36.979Z,13.83
2019-02-19T02:52:05.506Z,15.23
2019-02-19T02:54:33.947Z,14.93
2019-02-19T02:57:02.779Z,15.25
2019-02-19T02:59:31.225Z,16.02
2019-02-19T03:01:59.739Z,15.68
2019-02-19T03:04:28.249Z,15.32
2019-02-19T03:07:04.051Z,16.02
2019-02-19T03:09:32.511Z,16.65
2019-02-19T03:12:00.999Z,16.32
2019-02-19T03:14:29.460Z,17.42
2019-02-19T03:16:57.913Z,18.07
2019-02-19T03:19:26.379Z,18.10
2019-02-19T03:21:54.825Z,15.90
2019-02-19T03:24:23.382Z,16.70
2019-02-19T03:26:51.888Z,18.87
2019-02-19T03:29:20.337Z,17.25
2019-02-19T03:31:48.796Z,17.50
2019-02-19T03:34:17.258Z,17.23
2019-02-19T03:36:45.696Z,16.05
2019-02-19T03:39:14.179Z,15.10
2019-02-19T03:41:42.655Z,17.37
2019-02-19T03:44:11.124Z,17.67
2019-02-19T03:46:39.666Z,18.90
2019-02-19T03:49:08.173Z,17.10
2019-02-19T03:51:36.632Z,16.80
2019-02-19T03:54:05.070Z,16.73
2019-02-19T03:56:33.527Z,17.52
2019-02-19T03:59:02.022Z,15.78
2019-02-19T04:01:30.521Z,17.07
2019-02-19T04:03:59.031Z,17.52
2019-02-19T04:06:27.562Z,18.77
2019-02-19T04:08:55.999Z,18.95
2019-02-19T04:11:24.447Z,18.27
2019-02-19T04:13:52.909Z,18.50
2019-02-19T04:16:21.647Z,19.00
2019-02-19T04:18:50.308Z,17.07
2019-02-19T04:21:18.747Z,16.17
2019-02-19T04:23:47.231Z,17.87
2019-02-19T04:26:15.673Z,17.37
2019-02-19T04:28:44.159Z,17.73
2019-02-19T04:31:12.667Z,16.97
2019-02-19T04:33:41.131Z,16.32
2019-02-19T04:36:09.594Z,17.55
2019-02-19T04:38:38.059Z,17.25
2019-02-19T04:41:06.500Z,17.02
2019-02-19T04:43:34.980Z,16.85
2019-02-19T04:46:03.497Z,16.67
2019-02-19T04:48:31.968Z,16.02
2019-02-19T04:51:00.426Z,16.97
2019-02-19T04:53:28.939Z,17.52
2019-02-19T04:55:57.391Z,16.87
2019-02-19T04:58:25.845Z,16.87
2019-02-19T05:00:54.308Z,16.70
2019-02-19T05:03:22.748Z,16.20
2019-02-19T05:05:51.239Z,17.92
2019-02-19T05:08:19.703Z,17.80
2019-02-19T05:10:48.146Z,18.30
2019-02-19T05:13:16.597Z,17.63
2019-02-19T05:15:45.078Z,19.35
2019-02-19T05:18:13.576Z,17.65
2019-02-19T05:20:42.119Z,16.73
2019-02-19T05:23:10.665Z,17.48
2019-02-19T05:25:39.177Z,17.52
2019-02-19T05:28:07.688Z,17.37
2019-02-19T05:30:36.186Z,20.35
2019-02-19T05:33:04.628Z,16.50
2019-02-19T05:35:33.088Z,17.98
2019-02-19T05:38:01.539Z,15.65
2019-02-19T05:40:30.009Z,16.30
2019-02-19T05:42:58.450Z,16.50
2019-02-19T05:45:26.929Z,16.82
2019-02-19T05:47:55.395Z,17.73
2019-02-19T05:50:23.851Z,16.82
2019-02-19T05:52:52.317Z,15.80
2019-02-19T05:55:20.767Z,14.55
2019-02-19T05:57:49.222Z,16.97
2019-02-19T06:00:17.665Z,16.65
2019-02-19T06:02:46.108Z,16.57
2019-02-19T06:05:14.576Z,16.57
2019-02-19T06:07:43.020Z,16.32
2019-02-19T06:10:12.725Z,16.75
2019-02-19T06:12:41.173Z,17.40
2019-02-19T06:15:12.549Z,16.93
2019-02-19T06:17:41.094Z,16.32
2019-02-19T06:20:09.652Z,17.37
2019-02-19T06:22:38.238Z,15.70
2019-02-19T06:25:08.875Z,18.55
2019-02-19T06:27:37.339Z,14.33
2019-02-19T06:30:12.907Z,15.98
2019-02-19T06:32:41.500Z,16.27
2019-02-19T06:35:10.410Z,16.75
2019-02-19T06:37:38.862Z,17.27
2019-02-19T06:40:24.883Z,15.50
2019-02-19T06:42:53.339Z,15.90
2019-02-19T06:45:21.801Z,15.50
2019-02-19T06:47:50.255Z,16.67
2019-02-19T06:50:18.712Z,15.53
2019-02-19T06:52:47.430Z,15.43
2019-02-19T06:55:15.871Z,15.28
2019-02-19T06:57:44.330Z,15.25
2019-02-19T07:00:14.019Z,16.87
2019-02-19T07:03:00.226Z,15.48
2019-02-19T07:05:28.940Z,15.20
2019-02-19T07:07:57.406Z,14.33
2019-02-19T07:10:25.862Z,14.93
2019-02-19T07:12:54.318Z,14.87
2019-02-19T07:15:22.812Z,15.08
2019-02-19T07:17:51.400Z,12.30
2019-02-19T07:20:19.908Z,11.70
2019-02-19T07:22:48.347Z,13.70
2019-02-19T07:25:16.809Z,14.43
2019-02-19T07:27:45.248Z,14.68
2019-02-19T07:30:13.714Z,15.05
2019-02-19T07:32:42.253Z,13.15
2019-02-19T07:35:11.094Z,14.03
2019-02-19T07:37:39.534Z,12.78
2019-02-19T07:40:08.939Z,13.85
2019-02-19T07:42:37.375Z,13.00
2019-02-19T07:45:09.432Z,12.25
2019-02-19T07:47:37.937Z,12.90
2019-02-19T07:50:10.788Z,12.18
2019-02-19T07:52:39.250Z,12.35
2019-02-19T07:55:11.351Z,13.85
2019-02-19T07:57:39.811Z,12.05
2019-02-19T08:00:13.255Z,13.72
2019-02-19T08:02:41.742Z,14.13
2019-02-19T08:05:10.178Z,12.73
2019-02-19T08:07:38.631Z,13.32
2019-02-19T08:10:09.992Z,14.60
2019-02-19T08:12:38.522Z,12.58
2019-02-19T08:15:09.603Z,13.70
2019-02-19T08:17:38.064Z,11.60
2019-02-19T08:20:15.379Z,12.15
2019-02-19T08:22:39.730Z,13.13
2019-02-19T08:25:08.228Z,10.53
2019-02-19T08:27:36.677Z,13.48
2019-02-19T08:30:08.068Z,11.97
2019-02-19T08:32:36.518Z,12.93
2019-02-19T08:35:06.437Z,12.13
2019-02-19T08:37:34.871Z,12.95
2019-02-19T08:40:03.368Z,13.83
2019-02-19T08:42:31.883Z,14.18
2019-02-19T08:45:00.391Z,12.13
2019-02-19T08:47:28.895Z,12.93
2019-02-19T08:49:58.098Z,12.43
2019-02-19T08:52:26.675Z,11.40
2019-02-19T08:54:55.135Z,11.83
2019-02-19T08:57:23.574Z,12.05
2019-02-19T08:59:52.051Z,12.80
2019-02-19T09:02:20.495Z,11.85
2019-02-19T09:04:48.939Z,12.60
2019-02-19T09:07:17.398Z,12.53
2019-02-19T09:09:45.842Z,12.05
2019-02-19T09:12:14.299Z,13.00
2019-02-19T09:14:42.775Z,12.50
2019-02-19T09:17:11.280Z,12.93
2019-02-19T09:19:39.719Z,12.50
2019-02-19T09:22:08.200Z,12.47
2019-02-19T09:24:36.648Z,12.60
2019-02-19T09:27:05.092Z,11.38
2019-02-19T09:29:33.562Z,11.48
2019-02-19T09:32:02.028Z,12.65
2019-02-19T09:34:30.496Z,11.05
2019-02-19T09:36:59.014Z,11.65
2019-02-19T09:39:27.486Z,12.15
2019-02-19T09:41:55.926Z,10.72
2019-02-19T09:44:24.394Z,11.10
2019-02-19T09:46:52.865Z,9.25
2019-02-19T09:49:21.323Z,10.45
2019-02-19T09:51:49.766Z,9.60
2019-02-19T09:54:18.264Z,11.08
2019-02-19T09:56:46.718Z,10.18
2019-02-19T09:59:15.181Z,10.18
2019-02-19T10:01:43.699Z,9.33
2019-02-19T10:04:12.146Z,9.15
2019-02-19T10:06:40.868Z,8.65
2019-02-19T10:09:09.895Z,8.05
2019-02-19T10:11:38.368Z,9.63
2019-02-19T10:14:06.814Z,9.40
2019-02-19T10:16:41.386Z,9.75
2019-02-19T10:19:05.447Z,9.15
2019-02-19T10:21:33.891Z,8.68
2019-02-19T10:24:21.682Z,9.98
2019-02-19T10:26:50.131Z,9.10
2019-02-19T10:29:18.595Z,7.83
2019-02-19T10:31:47.112Z,8.70
2019-02-19T10:34:15.646Z,8.93
2019-02-19T10:36:44.139Z,9.00
2019-02-19T10:39:12.703Z,8.88
2019-02-19T10:41:41.146Z,9.85
2019-02-19T10:44:09.603Z,9.55
2019-02-19T10:46:38.055Z,9.48
2019-02-19T10:49:06.582Z,8.63
2019-02-19T10:51:35.033Z,8.95
2019-02-19T10:54:03.494Z,8.80
2019-02-19T10:56:31.936Z,9.00
2019-02-19T10:59:00.399Z,8.68
2019-02-19T11:01:28.869Z,7.17
2019-02-19T11:03:57.379Z,8.30
2019-02-19T11:06:25.866Z,8.75
2019-02-19T11:08:54.314Z,8.65
2019-02-19T11:11:22.747Z,8.45
2019-02-19T11:13:51.234Z,7.92
2019-02-19T11:16:19.671Z,8.45
2019-02-19T11:18:48.114Z,8.15
2019-02-19T11:21:19.741Z,7.10
2019-02-19T11:23:46.751Z,7.63
2019-02-19T11:26:15.190Z,7.25
2019-02-19T11:28:43.650Z,7.87
2019-02-19T11:31:12.096Z,8.93
2019-02-19T11:33:40.559Z,6.87
2019-02-19T11:36:09.001Z,8.18
2019-02-19T11:38:37.454Z,7.90
2019-02-19T11:41:05.906Z,8.65
2019-02-19T11:43:34.387Z,7.25
2019-02-19T11:46:02.835Z,8.58
2019-02-19T11:48:37.020Z,7.87
2019-02-19T11:51:01.506Z,7.92
2019-02-19T11:53:29.944Z,8.08
2019-02-19T11:55:58.393Z,7.72
2019-02-19T11:58:26.875Z,8.77
2019-02-19T12:00:55.321Z,8.23
2019-02-19T12:03:23.765Z,8.10
2019-02-19T12:05:52.239Z,7.40
2019-02-19T12:08:21.535Z,7.33
2019-02-19T12:10:49.986Z,8.35
2019-02-19T12:13:18.442Z,6.80
2019-02-19T12:15:46.899Z,7.72
2019-02-19T12:18:15.383Z,8.23
2019-02-19T12:20:43.884Z,7.87
2019-02-19T12:23:12.340Z,7.45
2019-02-19T12:25:40.787Z,7.62
2019-02-19T12:28:09.483Z,7.14
2019-02-19T12:30:38.064Z,7.15
2019-02-19T12:33:06.531Z,6.85
2019-02-19T12:35:34.987Z,6.40
2019-02-19T12:38:03.517Z,6.70
2019-02-19T12:40:31.959Z,6.47
2019-02-19T12:43:00.451Z,7.95
2019-02-19T12:45:28.960Z,6.55
2019-02-19T12:47:57.521Z,7.25
2019-02-19T12:50:25.972Z,6.85
2019-02-19T12:52:54.407Z,6.55
2019-02-19T12:55:22.951Z,5.37
2019-02-19T12:57:51.386Z,6.05
2019-02-19T13:00:20.203Z,6.17
2019-02-19T13:02:48.671Z,7.17
2019-02-19T13:05:17.225Z,6.05
2019-02-19T13:07:47.101Z,7.05
2019-02-19T13:10:15.748Z,6.60
2019-02-19T13:12:44.206Z,6.75
2019-02-19T13:15:20.779Z,6.75
2019-02-19T13:17:49.230Z,6.80
2019-02-19T13:20:17.674Z,6.87
2019-02-19T13:22:46.144Z,7.15
2019-02-19T13:25:14.591Z,6.30
2019-02-19T13:27:43.050Z,6.08
2019-02-19T13:30:14.603Z,6.87
2019-02-19T13:32:43.076Z,6.90
2019-02-19T13:35:13.114Z,6.05
2019-02-19T13:37:41.578Z,7.70
2019-02-19T13:40:20.527Z,6.97
2019-02-19T13:42:48.989Z,6.60
2019-02-19T13:45:17.564Z,7.22
2019-02-19T13:47:46.047Z,6.42
2019-02-19T13:50:17.567Z,7.10
2019-02-19T13:52:47.705Z,6.75
2019-02-19T13:55:17.818Z,7.10
2019-02-19T13:57:46.251Z,6.10
2019-02-19T14:00:16.376Z,6.35
2019-02-19T14:02:44.820Z,5.53
2019-02-19T14:05:13.550Z,6.85
2019-02-19T14:07:41.999Z,6.08
2019-02-19T14:10:11.498Z,6.72
2019-02-19T14:12:39.935Z,6.65
2019-02-19T14:15:17.648Z,5.58
2019-02-19T14:17:46.083Z,5.87
2019-02-19T14:20:19.351Z,5.75
2019-02-19T14:22:49.460Z,5.30
2019-02-19T14:25:25.314Z,5.90
2019-02-19T14:28:11.323Z,5.97
2019-02-19T14:30:57.967Z,4.50
2019-02-19T14:33:28.055Z,4.40
2019-02-19T14:36:07.171Z,3.92
2019-02-19T14:38:37.252Z,4.05
2019-02-19T14:41:19.528Z,3.60
2019-02-19T14:43:52.564Z,4.15
2019-02-19T14:46:40.678Z,4.10
2019-02-19T14:49:13.527Z,3.75
2019-02-19T14:51:43.623Z,3.67
2019-02-19T14:54:19.474Z,4.60
2019-02-19T14:56:49.575Z,4.05
2019-02-19T14:59:25.489Z,4.30
2019-02-19T15:02:04.734Z,4.17
2019-02-19T15:04:37.442Z,3.50
2019-02-19T15:07:23.587Z,3.62
2019-02-19T15:10:09.671Z,3.22
2019-02-19T15:12:42.519Z,3.58
2019-02-19T15:15:21.618Z,3.17
2019-02-19T15:17:51.894Z,2.50
2019-02-19T15:20:22.040Z,2.80
2019-02-19T15:23:08.631Z,3.00
2019-02-19T15:25:44.931Z,2.58
2019-02-19T15:28:17.823Z,2.90
2019-02-19T15:30:53.736Z,3.72
2019-02-19T15:33:29.979Z,3.80
2019-02-19T15:36:16.219Z,4.53
2019-02-19T15:39:01.358Z,4.45
2019-02-19T15:41:34.327Z,3.98
2019-02-19T15:44:22.448Z,4.17
2019-02-19T15:47:10.378Z,3.52
2019-02-19T15:49:48.088Z,4.40
2019-02-19T15:52:17.990Z,4.12
2019-02-19T15:55:04.746Z,4.47
2019-02-19T15:57:37.762Z,5.28
2019-02-19T16:00:09.920Z,6.17
2019-02-19T16:02:42.768Z,4.78
2019-02-19T16:05:15.685Z,5.35
2019-02-19T16:07:54.883Z,5.25
2019-02-19T16:10:33.883Z,4.85
2019-02-19T16:13:04.035Z,4.83
2019-02-19T16:15:50.350Z,5.67
2019-02-19T16:18:26.140Z,4.80
2019-02-19T16:20:59.043Z,4.40
2019-02-19T16:26:36.250Z,4.80
2019-02-19T16:29:09.086Z,4.30
2019-02-19T16:31:42.000Z,4.80
2019-02-19T16:34:12.084Z,4.17
2019-02-19T16:36:42.189Z,4.58
2019-02-19T16:39:12.498Z,4.58
2019-02-19T16:41:48.531Z,5.10
2019-02-19T16:44:30.673Z,4.72
2019-02-19T16:47:15.843Z,4.37
2019-02-19T16:50:07.827Z,4.33
2019-02-19T16:52:49.127Z,4.67
2019-02-19T16:55:30.918Z,5.37
2019-02-19T16:58:17.443Z,5.03
2019-02-19T17:00:50.805Z,4.75
2019-02-19T17:03:21.326Z,4.78
2019-02-19T17:05:51.412Z,5.12
2019-02-19T17:08:24.463Z,4.78
2019-02-19T17:10:57.242Z,4.85
2019-02-19T17:13:39.438Z,4.90
2019-02-19T17:16:09.515Z,5.28
2019-02-19T17:18:42.711Z,5.27
2019-02-19T17:21:12.879Z,5.45
2019-02-19T17:23:45.926Z,4.93
2019-02-19T17:26:21.998Z,5.53
2019-02-19T17:28:57.857Z,4.95
2019-02-19T17:31:27.931Z,5.97
2019-02-19T17:33:58.033Z,5.77
2019-02-19T17:36:28.199Z,4.90
2019-02-19T17:39:01.395Z,4.80
2019-02-19T17:41:37.376Z,6.15
2019-02-19T17:44:07.459Z,5.65
2019-02-19T17:46:43.295Z,4.85
2019-02-19T17:49:19.339Z,5.17
2019-02-19T17:51:52.095Z,4.75
2019-02-19T17:54:22.174Z,5.97
2019-02-19T17:56:58.411Z,5.33
2019-02-19T17:59:28.491Z,6.28
2019-02-19T18:01:58.605Z,5.15
2019-02-19T18:04:28.687Z,5.70
2019-02-19T18:06:58.819Z,5.53
2019-02-19T18:09:34.760Z,5.93
2019-02-19T18:12:10.877Z,5.42
2019-02-19T18:14:40.950Z,5.40
2019-02-19T18:17:29.163Z,4.95
2019-02-19T18:19:57.677Z,4.47
2019-02-19T18:22:26.106Z,4.83
2019-02-19T18:24:54.565Z,5.05
2019-02-19T18:27:23.168Z,5.50
2019-02-19T18:29:51.825Z,5.92
2019-02-19T18:32:20.288Z,5.95
2019-02-19T18:34:48.735Z,8.30
2019-02-19T18:37:17.220Z,9.40
2019-02-19T18:39:45.779Z,6.60
2019-02-19T18:42:14.294Z,6.12
2019-02-19T18:44:42.751Z,5.22
2019-02-19T18:47:11.271Z,5.37
2019-02-19T18:49:39.733Z,4.87
2019-02-19T18:52:08.201Z,4.85
2019-02-19T18:54:36.787Z,5.05
2019-02-19T18:57:05.245Z,4.75
2019-02-19T18:59:33.687Z,4.65
2019-02-19T19:02:02.139Z,4.55
2019-02-19T19:04:30.584Z,5.30
2019-02-19T19:06:59.041Z,5.08
2019-02-19T19:09:27.485Z,5.12
2019-02-19T19:11:55.922Z,4.53
2019-02-19T19:14:24.376Z,4.30
2019-02-19T19:16:52.839Z,4.85
2019-02-19T19:19:21.300Z,4.85
2019-02-19T19:21:49.785Z,5.42
2019-02-19T19:24:18.227Z,6.22
2019-02-19T19:26:46.676Z,4.97
2019-02-19T19:29:15.222Z,5.83
2019-02-19T19:31:43.653Z,4.83
2019-02-19T19:34:12.179Z,5.25
2019-02-19T19:36:40.647Z,6.15
2019-02-19T19:39:09.189Z,6.62
2019-02-19T19:41:37.694Z,6.10
2019-02-19T19:44:06.155Z,6.03
2019-02-19T19:46:34.614Z,5.40
2019-02-19T19:49:03.124Z,5.22
2019-02-19T19:51:31.604Z,5.03
2019-02-19T19:54:00.129Z,4.83
2019-02-19T19:56:28.565Z,5.75
2019-02-19T19:58:57.040Z,4.92
2019-02-19T20:01:25.478Z,5.30
2019-02-19T20:03:53.921Z,4.53
2019-02-19T20:06:22.375Z,4.80
2019-02-19T20:08:50.854Z,5.97
2019-02-19T20:11:19.348Z,4.53
2019-02-19T20:13:47.803Z,4.58
2019-02-19T20:16:16.254Z,4.50
2019-02-19T20:18:44.740Z,5.25
2019-02-19T20:21:13.230Z,5.30
2019-02-19T20:23:41.695Z,4.70
2019-02-19T20:26:10.152Z,5.17
2019-02-19T20:28:38.611Z,4.83
2019-02-19T20:31:07.059Z,4.20
2019-02-19T20:33:35.505Z,4.47
2019-02-19T20:36:03.957Z,4.65
2019-02-19T20:38:32.419Z,4.20
2019-02-19T20:41:00.943Z,4.55
2019-02-19T20:43:29.389Z,4.70
2019-02-19T20:45:57.845Z,4.62
2019-02-19T20:48:26.284Z,4.53
2019-02-19T20:50:54.830Z,4.80
2019-02-19T20:53:23.296Z,5.37
2019-02-19T20:55:51.775Z,5.30
2019-02-19T20:58:20.223Z,5.73
2019-02-19T21:00:48.661Z,5.17
2019-02-19T21:03:17.119Z,5.27
2019-02-19T21:05:45.564Z,5.33
2019-02-19T21:08:14.020Z,6.03
2019-02-19T21:10:42.463Z,5.35
2019-02-19T21:13:10.923Z,5.90
2019-02-19T21:15:39.366Z,6.33
2019-02-19T21:18:07.825Z,5.85
2019-02-19T21:20:36.263Z,5.50
2019-02-19T21:23:04.752Z,5.47
2019-02-19T21:25:33.275Z,6.40
2019-02-19T21:28:01.716Z,6.20
2019-02-19T21:30:30.181Z,5.47
2019-02-19T21:32:58.615Z,5.30
2019-02-19T21:35:27.071Z,4.72
2019-02-19T21:37:55.517Z,6.30
2019-02-19T21:40:43.314Z,6.17
2019-02-19T21:43:11.770Z,5.30
2019-02-19T21:45:40.206Z,6.25
2019-02-19T21:48:08.920Z,6.12
2019-02-19T21:50:37.379Z,5.62
2019-02-19T21:53:05.830Z,6.47
2019-02-19T21:55:34.378Z,6.92
2019-02-19T21:58:02.814Z,5.62
2019-02-19T22:00:31.250Z,5.60
2019-02-19T22:02:59.706Z,5.25
2019-02-19T22:05:28.188Z,5.87
2019-02-19T22:07:56.625Z,7.40
2019-02-19T22:10:25.059Z,6.22
2019-02-19T22:12:53.510Z,7.25
2019-02-19T22:15:21.950Z,6.72
2019-02-19T22:17:50.401Z,6.97
2019-02-19T22:20:22.014Z,6.95
2019-02-19T22:22:50.498Z,7.67
2019-02-19T22:25:18.991Z,6.90
2019-02-19T22:27:47.456Z,6.97
2019-02-19T22:30:15.891Z,7.67
2019-02-19T22:32:44.347Z,8.15
2019-02-19T22:35:12.787Z,8.05
2019-02-19T22:37:41.238Z,8.23
2019-02-19T22:40:09.754Z,8.00
2019-02-19T22:42:38.282Z,7.87
2019-02-19T22:45:08.775Z,8.08
2019-02-19T22:47:37.217Z,8.85
2019-02-19T22:50:08.187Z,8.23
2019-02-19T22:52:36.643Z,9.95
2019-02-19T22:55:14.679Z,8.60
2019-02-19T22:57:43.556Z,8.43
2019-02-19T23:00:34.348Z,9.03
2019-02-19T23:03:02.873Z,9.05
2019-02-19T23:05:31.318Z,9.70
2019-02-19T23:07:59.761Z,9.73
2019-02-19T23:10:28.223Z,9.55
2019-02-19T23:12:56.669Z,9.48
2019-02-19T23:15:25.144Z,9.88
2019-02-19T23:17:53.586Z,11.35
2019-02-19T23:20:22.066Z,9.95
2019-02-19T23:22:50.514Z,9.85
2019-02-19T23:25:18.951Z,10.50
2019-02-19T23:27:47.447Z,11.12
2019-02-19T23:30:15.888Z,9.78
2019-02-19T23:32:44.329Z,10.25
2019-02-19T23:35:14.438Z,10.93
2019-02-19T23:37:42.900Z,11.28
2019-02-19T23:40:11.345Z,10.10
2019-02-19T23:42:39.803Z,11.73
2019-02-19T23:45:09.015Z,10.60
2019-02-19T23:47:37.770Z,10.70
2019-02-19T23:50:08.268Z,10.10
2019-02-19T23:52:36.776Z,9.88
2019-02-19T23:55:07.299Z,9.30
2019-02-19T23:57:35.756Z,9.40
